Time;durP1;ratioP1;P1;durP2;ratioP2;P2;SDS_P1;SDS_P2;PMS_P1;PMS_P2;Temp;Humidity;BMP_temperature;BMP_pressure;BME280_temperature;BME280_humidity;BME280_pressure;Samples;Min_cycle;Max_cycle;Signal;HPM_P1;HPM_P2
2022/11/13 00:01:10;;;;;;;12.75;6.50;;;5.50;87.30;;;;;;5060355;28;20119;-61
2022/11/13 00:03:57;;;;;;;13.98;7.63;;;5.40;87.50;;;;;;5063116;28;20448;-61
2022/11/13 00:06:43;;;;;;;10.90;6.70;;;5.40;87.40;;;;;;5068659;28;20535;-59
2022/11/13 00:09:28;;;;;;;14.38;7.22;;;5.40;87.30;;;;;;5062790;28;20505;-59
2022/11/13 00:12:15;;;;;;;14.40;7.18;;;5.40;87.20;;;;;;5063932;28;20635;-60
2022/11/13 00:15:01;;;;;;;14.25;7.03;;;5.40;87.20;;;;;;5061858;28;20051;-60
2022/11/13 00:17:49;;;;;;;13.30;7.70;;;5.40;87.10;;;;;;5066499;28;20080;-59
2022/11/13 00:20:36;;;;;;;13.68;7.80;;;5.30;87.20;;;;;;5063378;28;20056;-60
2022/11/13 00:23:21;;;;;;;14.95;7.95;;;5.30;87.20;;;;;;5066853;28;20583;-60
2022/11/13 00:26:12;;;;;;;14.30;7.97;;;5.30;87.30;;;;;;5066559;28;20130;-60
2022/11/13 00:29:00;;;;;;;17.10;8.32;;;5.20;87.30;;;;;;5056792;28;20055;-60
2022/11/13 00:31:47;;;;;;;16.55;8.63;;;5.30;87.40;;;;;;5047753;28;20052;-60
2022/11/13 00:34:32;;;;;;;14.98;7.65;;;5.30;87.50;;;;;;5067421;28;20056;-60
2022/11/13 00:37:18;;;;;;;14.10;7.63;;;5.40;87.40;;;;;;5063570;28;20472;-59
2022/11/13 00:40:04;;;;;;;13.02;7.05;;;5.20;87.40;;;;;;5067620;28;20042;-59
2022/11/13 00:42:54;;;;;;;12.65;7.05;;;5.20;87.30;;;;;;5057306;28;20055;-60
2022/11/13 00:45:41;;;;;;;12.05;7.18;;;5.30;87.20;;;;;;5064595;28;20411;-60
2022/11/13 00:48:27;;;;;;;11.85;6.68;;;5.20;87.00;;;;;;5062271;28;20073;-61
2022/11/13 00:51:13;;;;;;;13.48;7.60;;;5.20;87.00;;;;;;5062706;28;20059;-59
2022/11/13 00:54:00;;;;;;;12.95;7.03;;;5.00;87.10;;;;;;5063549;28;20055;-60
2022/11/13 00:56:45;;;;;;;12.75;6.90;;;5.10;87.20;;;;;;5064375;28;20059;-61
2022/11/13 00:59:31;;;;;;;11.73;6.85;;;5.10;87.00;;;;;;5065514;28;20056;-61
2022/11/13 01:02:20;;;;;;;11.48;6.75;;;5.00;87.00;;;;;;5065033;28;20051;-61
2022/11/13 01:05:09;;;;;;;12.05;6.60;;;5.00;87.00;;;;;;5067620;28;20059;-61
2022/11/13 01:07:55;;;;;;;12.07;6.93;;;5.00;87.00;;;;;;5065893;28;20168;-60
2022/11/13 01:10:45;;;;;;;11.75;7.13;;;5.00;86.90;;;;;;5061667;28;20067;-61
2022/11/13 01:13:31;;;;;;;11.05;5.85;;;4.90;86.80;;;;;;5066724;28;20052;-61
2022/11/13 01:16:21;;;;;;;15.23;6.90;;;4.90;86.80;;;;;;5064824;28;20051;-62
2022/11/13 01:19:08;;;;;;;11.18;6.53;;;4.90;86.80;;;;;;5065291;28;20517;-63
2022/11/13 01:21:54;;;;;;;10.35;6.13;;;4.80;86.80;;;;;;5066446;28;20048;-73
2022/11/13 01:24:42;;;;;;;9.52;5.65;;;4.80;86.80;;;;;;5065120;28;20060;-72
2022/11/13 01:27:28;;;;;;;11.02;6.22;;;4.80;86.80;;;;;;5065075;28;20048;-62
2022/11/13 01:30:13;;;;;;;10.95;5.40;;;4.80;86.80;;;;;;5062051;28;20060;-62
2022/11/13 01:33:01;;;;;;;10.50;5.65;;;4.80;86.80;;;;;;5024831;28;20064;-62
2022/11/13 01:35:50;;;;;;;10.98;5.85;;;4.70;87.00;;;;;;5027029;28;20076;-59
2022/11/13 01:38:36;;;;;;;10.75;5.55;;;4.70;87.00;;;;;;5024795;28;20175;-60
2022/11/13 01:41:23;;;;;;;10.18;5.10;;;4.60;87.00;;;;;;5023184;28;20053;-64
2022/11/13 01:44:12;;;;;;;10.23;5.18;;;4.70;86.90;;;;;;5020825;28;20044;-64
2022/11/13 01:46:58;;;;;;;7.88;4.53;;;4.70;86.90;;;;;;5023571;28;20168;-58
2022/11/13 01:49:46;;;;;;;8.43;4.40;;;4.70;87.00;;;;;;5022326;28;20056;-58
2022/11/13 01:52:38;;;;;;;8.73;4.53;;;4.70;87.10;;;;;;5022517;28;20055;-60
2022/11/13 01:55:23;;;;;;;9.18;5.22;;;4.70;86.80;;;;;;5021081;28;20454;-61
2022/11/13 01:58:11;;;;;;;9.07;4.60;;;4.70;86.90;;;;;;5024011;28;20052;-61
2022/11/13 02:00:56;;;;;;;9.23;4.13;;;4.70;86.80;;;;;;5021381;28;20423;-63
2022/11/13 02:03:47;;;;;;;7.90;4.53;;;4.70;86.80;;;;;;5021941;28;20057;-63
2022/11/13 02:06:46;;;;;;;7.57;4.10;;;4.60;86.90;;;;;;5007050;28;20553;-64
2022/11/13 02:09:42;;;;;;;8.05;4.05;;;4.70;87.00;;;;;;5028535;28;20135;-64
2022/11/13 02:12:32;;;;;;;8.35;4.50;;;4.70;86.90;;;;;;5022827;28;20123;-61
2022/11/13 02:15:22;;;;;;;6.90;4.40;;;4.70;86.80;;;;;;5022781;28;20047;-61
2022/11/13 02:18:11;;;;;;;7.68;4.20;;;4.60;87.10;;;;;;5016674;28;20522;-68
2022/11/13 02:21:04;;;;;;;9.52;4.07;;;4.70;87.00;;;;;;5022689;28;20061;-62
2022/11/13 02:23:58;;;;;;;5.97;3.42;;;4.60;87.20;;;;;;5028954;28;20052;-61
2022/11/13 02:26:45;;;;;;;7.50;4.78;;;4.60;87.20;;;;;;5026078;28;20063;-63
2022/11/13 02:29:35;;;;;;;6.30;3.83;;;4.60;87.10;;;;;;5030354;28;20056;-64
2022/11/13 02:32:21;;;;;;;6.28;3.15;;;4.70;87.00;;;;;;5060283;28;20414;-62
2022/11/13 02:35:07;;;;;;;6.78;3.92;;;4.60;87.20;;;;;;5070604;28;20067;-62
2022/11/13 02:37:53;;;;;;;7.18;3.47;;;4.50;87.40;;;;;;5065996;28;20505;-72
2022/11/13 02:40:43;;;;;;;6.55;3.40;;;4.60;87.30;;;;;;5069915;28;20063;-62
2022/11/13 02:43:29;;;;;;;8.15;3.45;;;4.60;87.20;;;;;;5067892;28;20521;-61
2022/11/13 02:46:18;;;;;;;7.47;3.60;;;4.60;87.30;;;;;;5068716;28;20422;-61
2022/11/13 02:49:04;;;;;;;5.43;3.03;;;4.60;87.30;;;;;;5068602;28;20559;-60
2022/11/13 02:51:52;;;;;;;5.88;3.15;;;4.50;87.30;;;;;;5055427;28;20131;-64
2022/11/13 02:54:41;;;;;;;7.20;2.92;;;4.50;87.40;;;;;;5065759;28;20056;-64
2022/11/13 02:57:27;;;;;;;6.47;3.20;;;4.40;87.40;;;;;;5069314;28;20209;-64
2022/11/13 03:00:17;;;;;;;6.22;3.13;;;4.50;87.50;;;;;;5066358;28;20056;-63
2022/11/13 03:03:03;;;;;;;;;;;4.50;87.10;;;;;;5068593;28;20056;-63
2022/11/13 03:05:53;;;;;;;6.85;3.22;;;4.50;87.10;;;;;;5069080;28;19935;-68
2022/11/13 03:08:38;;;;;;;6.43;3.05;;;4.50;87.10;;;;;;5067350;28;20055;-67
2022/11/13 03:11:24;;;;;;;6.90;3.47;;;4.40;87.10;;;;;;5066168;28;20059;-70
2022/11/13 03:14:09;;;;;;;6.45;3.15;;;4.40;87.10;;;;;;5066221;28;20441;-69
2022/11/13 03:16:59;;;;;;;5.25;3.03;;;4.40;87.30;;;;;;5068824;28;20048;-62
2022/11/13 03:19:47;;;;;;;5.50;2.95;;;4.40;87.40;;;;;;5068369;28;20421;-63
2022/11/13 03:22:33;;;;;;;6.35;3.17;;;4.40;87.30;;;;;;5064896;28;20062;-62
2022/11/13 03:25:19;;;;;;;7.90;3.30;;;4.40;87.40;;;;;;5066227;28;20605;-60
2022/11/13 03:28:04;;;;;;;7.18;3.00;;;4.50;87.10;;;;;;5064496;28;20175;-59
2022/11/13 03:30:50;;;;;;;8.85;3.45;;;4.50;87.00;;;;;;5064174;28;20413;-59
2022/11/13 03:33:38;;;;;;;7.82;3.40;;;4.50;87.30;;;;;;5064267;28;20498;-61
2022/11/13 03:36:23;;;;;;;5.97;2.95;;;4.40;87.50;;;;;;5064512;28;20708;-60
2022/11/13 03:39:09;;;;;;;5.88;2.67;;;4.30;87.50;;;;;;5062131;28;20068;-60
2022/11/13 03:41:54;;;;;;;5.63;2.70;;;4.30;87.50;;;;;;5064227;28;20063;-60
2022/11/13 03:44:40;;;;;;;5.38;2.78;;;4.30;87.50;;;;;;5066081;28;20469;-61
2022/11/13 03:47:25;;;;;;;7.18;3.10;;;4.30;87.40;;;;;;5067454;28;20077;-64
2022/11/13 03:50:12;;;;;;;5.47;2.95;;;4.30;87.50;;;;;;5064357;28;20520;-65
2022/11/13 03:52:57;;;;;;;5.68;2.70;;;4.20;87.50;;;;;;5063874;28;20056;-64
2022/11/13 03:55:43;;;;;;;7.80;3.20;;;4.20;87.40;;;;;;5062445;28;20052;-59
2022/11/13 03:58:29;;;;;;;5.47;2.97;;;4.20;87.40;;;;;;5066406;28;20097;-59
2022/11/13 04:01:14;;;;;;;5.47;2.75;;;4.20;87.40;;;;;;5068533;28;20048;-60
2022/11/13 04:04:00;;;;;;;6.55;2.75;;;4.20;87.20;;;;;;5071367;28;20051;-60
2022/11/13 04:06:53;;;;;;;5.75;2.60;;;4.20;87.20;;;;;;5066801;28;20505;-64
2022/11/13 04:09:39;;;;;;;5.20;2.63;;;4.20;87.20;;;;;;5059155;28;20066;-64
2022/11/13 04:12:26;;;;;;;4.97;2.83;;;4.20;87.10;;;;;;5074720;28;20505;-63
2022/11/13 04:15:12;;;;;;;7.25;3.13;;;4.10;87.10;;;;;;5068183;28;20169;-63
2022/11/13 04:18:01;;;;;;;5.10;3.05;;;4.20;87.20;;;;;;5068987;28;20175;-63
2022/11/13 04:20:46;;;;;;;6.40;2.95;;;4.20;87.10;;;;;;5066452;28;20538;-63
2022/11/13 04:23:33;;;;;;;4.35;2.53;;;4.20;87.00;;;;;;5061860;28;20048;-64
2022/11/13 04:26:19;;;;;;;6.57;3.28;;;4.10;87.00;;;;;;5064019;28;20067;-64
2022/11/13 04:29:04;;;;;;;6.63;2.83;;;4.10;87.00;;;;;;5062167;28;20043;-63
2022/11/13 04:31:50;;;;;;;4.60;2.50;;;4.00;86.90;;;;;;5064545;28;20052;-65
2022/11/13 04:34:35;;;;;;;5.85;2.55;;;4.10;86.90;;;;;;5066801;28;20481;-67
2022/11/13 04:37:21;;;;;;;5.95;3.00;;;4.10;86.80;;;;;;5067703;28;20056;-64
2022/11/13 04:40:09;;;;;;;5.57;2.78;;;4.10;86.80;;;;;;5062690;28;20126;-63
2022/11/13 04:42:54;;;;;;;5.90;2.65;;;4.00;86.90;;;;;;5067650;28;20051;-64
2022/11/13 04:45:39;;;;;;;5.63;3.22;;;4.00;86.90;;;;;;5063568;28;20413;-60
2022/11/13 04:48:26;;;;;;;7.22;3.13;;;4.00;86.80;;;;;;5063881;28;20158;-60
2022/11/13 04:51:12;;;;;;;4.72;2.72;;;4.00;86.90;;;;;;5064884;28;20063;-65
2022/11/13 04:53:57;;;;;;;6.32;3.17;;;3.90;86.90;;;;;;5066818;28;20097;-64
2022/11/13 04:56:44;;;;;;;6.90;2.97;;;3.90;86.90;;;;;;5065515;28;20059;-64
2022/11/13 04:59:29;;;;;;;5.30;2.72;;;3.90;86.80;;;;;;5065355;28;20067;-64
2022/11/13 05:02:15;;;;;;;7.03;3.15;;;3.90;86.80;;;;;;5063753;28;20631;-64
2022/11/13 05:05:08;;;;;;;8.82;2.78;;;3.90;86.90;;;;;;5065125;28;20087;-64
2022/11/13 05:07:58;;;;;;;6.55;2.75;;;3.90;86.80;;;;;;5064438;28;20056;-64
2022/11/13 05:10:43;;;;;;;7.03;2.80;;;3.90;86.80;;;;;;5061936;28;20079;-62
2022/11/13 05:13:32;;;;;;;5.70;2.80;;;3.90;86.80;;;;;;5062685;28;20600;-64
2022/11/13 05:16:17;;;;;;;6.28;2.83;;;3.80;86.70;;;;;;5064076;28;20051;-63
2022/11/13 05:19:05;;;;;;;5.45;2.80;;;3.90;86.80;;;;;;5066066;28;20623;-64
2022/11/13 05:21:52;;;;;;;6.65;2.85;;;3.90;86.60;;;;;;5064181;28;20122;-61
2022/11/13 05:24:38;;;;;;;5.35;2.92;;;3.80;86.60;;;;;;5065000;28;20047;-61
2022/11/13 05:27:23;;;;;;;4.68;2.65;;;3.90;86.60;;;;;;5066410;28;20177;-67
2022/11/13 05:30:10;;;;;;;5.93;2.60;;;3.90;86.60;;;;;;5060963;28;20048;-66
2022/11/13 05:32:58;;;;;;;6.30;2.70;;;3.80;86.70;;;;;;5062245;28;20061;-61
2022/11/13 05:35:43;;;;;;;6.10;2.58;;;3.70;86.90;;;;;;5064182;28;20063;-67
2022/11/13 05:38:29;;;;;;;5.55;2.53;;;3.70;86.90;;;;;;5064307;28;20452;-66
2022/11/13 05:41:16;;;;;;;4.65;2.50;;;3.70;87.00;;;;;;5061093;28;20047;-67
2022/11/13 05:44:02;;;;;;;4.13;2.20;;;3.70;86.90;;;;;;5065192;28;20121;-67
2022/11/13 05:46:50;;;;;;;4.80;2.42;;;3.70;86.70;;;;;;5061495;28;20055;-61
2022/11/13 05:49:35;;;;;;;4.43;2.40;;;3.70;86.60;;;;;;5063247;28;20044;-61
2022/11/13 05:52:21;;;;;;;5.40;2.67;;;3.70;86.60;;;;;;5065670;28;20050;-64
2022/11/13 05:55:07;;;;;;;4.35;2.50;;;3.70;86.40;;;;;;5066450;28;20043;-63
2022/11/13 05:57:53;;;;;;;4.80;2.67;;;3.70;86.50;;;;;;5064874;28;20086;-61
2022/11/13 06:00:39;;;;;;;5.13;2.42;;;3.70;86.60;;;;;;5063099;28;20071;-61
2022/11/13 06:03:26;;;;;;;5.63;3.10;;;3.70;86.70;;;;;;5063528;28;20528;-61
2022/11/13 06:06:13;;;;;;;5.90;2.60;;;3.70;86.60;;;;;;5066785;28;20048;-71
2022/11/13 06:09:00;;;;;;;5.20;2.70;;;3.70;86.60;;;;;;5066957;28;20068;-72
2022/11/13 06:11:51;;;;;;;5.22;2.45;;;3.70;86.70;;;;;;5065817;28;20048;-66
2022/11/13 06:14:36;;;;;;;4.03;2.25;;;3.70;86.60;;;;;;5063151;28;20121;-68
2022/11/13 06:17:21;;;;;;;9.35;3.25;;;3.60;86.50;;;;;;5060569;28;20063;-61
2022/11/13 06:20:09;;;;;;;4.88;2.63;;;3.60;86.70;;;;;;5066974;28;20042;-63
2022/11/13 06:22:58;;;;;;;7.28;2.63;;;3.70;86.70;;;;;;5064497;28;20051;-61
2022/11/13 06:25:43;;;;;;;4.20;2.47;;;3.70;86.50;;;;;;5066080;28;20652;-60
2022/11/13 06:28:32;;;;;;;5.15;2.58;;;3.60;86.50;;;;;;5067380;28;20060;-61
2022/11/13 06:31:19;;;;;;;4.85;2.42;;;3.60;86.50;;;;;;5064041;28;20071;-60
2022/11/13 06:34:06;;;;;;;5.30;2.55;;;3.50;86.60;;;;;;5064406;28;20060;-60
2022/11/13 06:36:53;;;;;;;5.28;2.50;;;3.60;86.50;;;;;;5067324;28;20055;-64
2022/11/13 06:39:38;;;;;;;4.43;2.15;;;3.60;86.50;;;;;;5064961;28;20048;-65
2022/11/13 06:42:23;;;;;;;6.47;2.70;;;3.60;86.50;;;;;;5063941;28;20087;-60
2022/11/13 06:45:09;;;;;;;5.50;2.75;;;3.50;86.50;;;;;;5063837;28;20406;-60
2022/11/13 06:47:55;;;;;;;5.25;2.53;;;3.50;86.70;;;;;;5066547;28;20617;-65
2022/11/13 06:50:40;;;;;;;6.75;2.50;;;3.50;86.60;;;;;;5060853;28;20097;-66
2022/11/13 06:53:28;;;;;;;5.47;2.75;;;3.60;86.60;;;;;;5063978;28;20063;-64
2022/11/13 06:56:14;;;;;;;5.07;2.58;;;3.50;86.60;;;;;;5063092;28;20059;-61
2022/11/13 06:58:59;;;;;;;4.78;2.60;;;3.60;86.50;;;;;;5063907;28;20156;-63
2022/11/13 07:01:45;;;;;;;5.72;2.92;;;3.50;86.50;;;;;;5062870;28;20149;-63
2022/11/13 07:04:30;;;;;;;4.72;2.53;;;3.50;86.60;;;;;;5063538;28;20058;-65
2022/11/13 07:07:16;;;;;;;5.60;2.80;;;3.50;86.60;;;;;;5063874;28;20159;-63
2022/11/13 07:10:08;;;;;;;6.60;3.05;;;3.50;86.60;;;;;;5064918;28;20063;-64
2022/11/13 07:12:54;;;;;;;4.65;2.80;;;3.50;86.60;;;;;;5066232;28;20055;-63
2022/11/13 07:15:42;;;;;;;6.05;3.22;;;3.50;86.50;;;;;;5066108;28;20048;-61
2022/11/13 07:18:27;;;;;;;5.93;3.05;;;3.50;86.60;;;;;;5065445;28;20133;-60
2022/11/13 07:21:13;;;;;;;4.57;2.92;;;3.60;86.50;;;;;;5067383;28;20721;-61
2022/11/13 07:23:59;;;;;;;6.90;3.20;;;3.60;86.60;;;;;;5066582;28;20068;-60
2022/11/13 07:26:46;;;;;;;6.10;3.13;;;3.50;86.90;;;;;;5064802;28;20423;-64
2022/11/13 07:29:32;;;;;;;4.95;3.10;;;3.50;87.10;;;;;;5067392;28;20055;-63
2022/11/13 07:32:17;;;;;;;5.13;3.13;;;3.50;87.10;;;;;;5068413;28;20055;-63
2022/11/13 07:35:03;;;;;;;4.93;2.85;;;3.50;87.20;;;;;;5063860;28;20402;-63
2022/11/13 07:37:48;;;;;;;5.95;3.28;;;3.60;87.20;;;;;;5067076;28;20094;-63
2022/11/13 07:40:34;;;;;;;6.00;3.38;;;3.70;87.10;;;;;;5066946;28;20493;-63
2022/11/13 07:43:21;;;;;;;10.65;6.25;;;3.70;87.30;;;;;;5064337;28;20067;-63
2022/11/13 07:46:06;;;;;;;15.07;10.35;;;3.60;87.50;;;;;;5067457;28;20044;-62
2022/11/13 07:48:52;;;;;;;13.77;10.23;;;3.70;87.60;;;;;;5066669;28;20509;-61
2022/11/13 07:51:38;;;;;;;10.75;7.28;;;3.70;87.40;;;;;;5068061;28;20051;-64
2022/11/13 07:54:23;;;;;;;8.90;6.28;;;3.70;87.30;;;;;;5066724;28;20079;-64
2022/11/13 07:57:09;;;;;;;7.78;4.88;;;3.70;87.50;;;;;;5069542;28;20513;-62
2022/11/13 07:59:56;;;;;;;8.18;4.57;;;3.70;87.70;;;;;;5067549;28;20532;-61
2022/11/13 08:02:42;;;;;;;9.07;4.93;;;3.70;87.60;;;;;;5065469;28;20505;-64
2022/11/13 08:05:27;;;;;;;10.98;4.88;;;3.80;87.60;;;;;;5069417;28;20097;-63
2022/11/13 08:08:13;;;;;;;8.57;4.45;;;3.80;87.60;;;;;;5068011;28;20063;-61
2022/11/13 08:11:03;;;;;;;9.40;5.00;;;3.80;87.50;;;;;;5067488;28;20051;-63
2022/11/13 08:13:48;;;;;;;9.90;5.30;;;3.80;87.60;;;;;;5069807;28;20129;-63
2022/11/13 08:16:35;;;;;;;9.05;4.70;;;3.90;87.60;;;;;;5067430;28;20129;-70
2022/11/13 08:19:21;;;;;;;9.15;4.85;;;3.90;87.50;;;;;;5065214;28;20154;-71
2022/11/13 08:22:07;;;;;;;7.70;4.13;;;3.90;87.50;;;;;;5066345;28;20107;-71
2022/11/13 08:24:53;;;;;;;7.55;4.20;;;4.00;87.60;;;;;;5070064;28;20055;-72
2022/11/13 08:27:39;;;;;;;7.47;4.03;;;3.90;87.60;;;;;;5057816;27;20080;-71
2022/11/13 08:30:26;;;;;;;8.75;3.97;;;3.90;87.80;;;;;;5065466;28;20068;-61
2022/11/13 08:33:13;;;;;;;6.07;3.70;;;4.00;87.80;;;;;;5066119;28;20174;-62
2022/11/13 08:36:00;;;;;;;8.40;3.88;;;4.00;87.90;;;;;;5064409;28;20047;-61
2022/11/13 08:38:48;;;;;;;6.88;3.50;;;4.00;87.50;;;;;;5062383;28;20056;-60
2022/11/13 08:41:33;;;;;;;8.20;3.97;;;4.10;87.50;;;;;;5065639;28;20060;-59
2022/11/13 08:44:18;;;;;;;6.78;3.67;;;4.10;87.50;;;;;;5062798;28;20048;-60
2022/11/13 08:47:04;;;;;;;6.57;3.60;;;4.10;87.90;;;;;;5055177;28;20578;-63
2022/11/13 08:49:51;;;;;;;8.10;4.43;;;4.10;87.90;;;;;;5065667;28;20132;-61
2022/11/13 08:52:36;;;;;;;7.63;3.92;;;4.20;88.00;;;;;;5061925;28;20601;-63
2022/11/13 08:55:22;;;;;;;7.55;4.18;;;4.20;87.90;;;;;;5065250;28;20051;-63
2022/11/13 08:58:07;;;;;;;6.70;3.80;;;4.20;87.80;;;;;;5065279;28;20051;-62
2022/11/13 09:00:53;;;;;;;6.28;4.25;;;4.20;88.00;;;;;;5060368;28;20051;-64
2022/11/13 09:03:38;;;;;;;7.22;4.32;;;4.20;88.00;;;;;;5066294;28;20055;-64
2022/11/13 09:06:25;;;;;;;6.60;3.92;;;4.30;87.90;;;;;;5065107;28;20057;-63
2022/11/13 09:09:11;;;;;;;7.40;3.92;;;4.30;87.80;;;;;;5065048;28;20409;-69
2022/11/13 09:11:56;;;;;;;9.13;4.13;;;4.30;87.50;;;;;;5067075;28;20044;-72
2022/11/13 09:14:41;;;;;;;6.97;3.78;;;4.40;87.40;;;;;;5067025;28;20056;-71
2022/11/13 09:17:27;;;;;;;8.20;4.25;;;4.40;87.90;;;;;;5065313;28;20514;-61
2022/11/13 09:20:12;;;;;;;7.30;4.20;;;4.40;87.70;;;;;;5063130;28;20093;-60
2022/11/13 09:23:02;;;;;;;8.00;4.28;;;4.50;88.20;;;;;;5065727;28;20052;-61
2022/11/13 09:25:50;;;;;;;8.27;4.22;;;4.60;87.60;;;;;;5065847;28;20059;-71
2022/11/13 09:28:35;;;;;;;8.35;4.55;;;4.50;88.30;;;;;;5064600;28;20047;-71
2022/11/13 09:31:21;;;;;;;6.65;4.00;;;4.50;88.60;;;;;;5063910;28;20059;-71
2022/11/13 09:34:07;;;;;;;6.22;3.88;;;4.70;89.00;;;;;;5066414;28;20059;-71
2022/11/13 09:36:53;;;;;;;6.88;4.25;;;4.80;89.20;;;;;;5065446;28;20067;-61
2022/11/13 09:39:40;;;;;;;8.23;4.13;;;4.90;89.10;;;;;;5067223;28;20238;-59
2022/11/13 09:42:28;;;;;;;10.18;4.38;;;4.90;89.10;;;;;;5064026;28;20406;-71
2022/11/13 09:45:15;;;;;;;8.55;4.80;;;5.00;89.20;;;;;;5064530;28;20498;-61
2022/11/13 09:48:16;;;;;;;8.75;4.72;;;5.10;89.50;;;;;;5062360;28;20139;-61
2022/11/13 09:51:07;;;;;;;8.77;5.40;;;5.20;89.50;;;;;;5063459;28;20089;-61
2022/11/13 09:53:53;;;;;;;10.48;4.60;;;5.20;89.50;;;;;;5067017;28;20047;-61
2022/11/13 09:56:41;;;;;;;7.88;4.57;;;5.30;89.40;;;;;;5065225;28;20052;-64
2022/11/13 09:59:32;;;;;;;6.97;4.18;;;5.40;89.90;;;;;;5065188;28;20071;-65
2022/11/13 10:02:22;;;;;;;7.72;4.53;;;5.50;89.60;;;;;;5066012;28;20054;-63
2022/11/13 10:05:20;;;;;;;7.18;4.30;;;5.60;89.50;;;;;;5064849;28;20047;-65
2022/11/13 10:08:14;;;;;;;7.97;4.30;;;5.70;89.10;;;;;;5067403;28;20059;-64
2022/11/13 10:11:09;;;;;;;7.78;4.22;;;5.70;89.10;;;;;;5061680;28;20044;-67
2022/11/13 10:14:01;;;;;;;5.90;3.50;;;5.80;89.20;;;;;;5060743;28;20442;-65
2022/11/13 10:16:51;;;;;;;7.13;4.13;;;5.90;89.10;;;;;;5062914;28;20456;-63
2022/11/13 10:19:42;;;;;;;9.82;4.20;;;5.90;89.00;;;;;;5056174;28;20067;-65
2022/11/13 10:22:35;;;;;;;9.68;4.20;;;6.00;88.90;;;;;;5062054;28;20051;-65
2022/11/13 10:25:23;;;;;;;8.25;3.90;;;6.10;88.80;;;;;;5063244;28;20556;-65
2022/11/13 10:28:14;;;;;;;7.13;4.25;;;6.10;89.00;;;;;;5065002;28;20043;-66
2022/11/13 10:31:01;;;;;;;8.07;4.30;;;6.20;89.00;;;;;;5060444;28;20059;-64
2022/11/13 10:33:47;;;;;;;8.13;4.18;;;6.20;88.80;;;;;;5064154;28;20044;-66
2022/11/13 10:36:38;;;;;;;8.27;4.38;;;6.30;88.80;;;;;;5063091;28;20072;-65
2022/11/13 10:39:23;;;;;;;7.57;3.80;;;6.40;88.70;;;;;;5058860;28;21211;-65
2022/11/13 10:42:22;;;;;;;8.68;4.30;;;6.40;88.60;;;;;;5065484;28;20044;-66
2022/11/13 10:45:14;;;;;;;6.80;4.13;;;6.50;88.70;;;;;;5067668;28;20052;-65
2022/11/13 10:48:01;;;;;;;7.18;4.13;;;6.50;88.70;;;;;;5067885;28;20125;-66
2022/11/13 10:50:53;;;;;;;7.03;4.00;;;6.60;89.00;;;;;;5065936;28;20171;-66
2022/11/13 10:53:41;;;;;;;7.55;3.80;;;6.70;88.60;;;;;;5068055;28;20063;-66
2022/11/13 10:56:29;;;;;;;7.57;3.92;;;6.70;88.40;;;;;;5068759;28;20055;-66
2022/11/13 10:59:17;;;;;;;8.55;4.38;;;6.70;88.40;;;;;;5070746;28;20583;-66
2022/11/13 11:02:16;;;;;;;6.57;3.78;;;6.70;88.30;;;;;;5065344;28;20055;-64
2022/11/13 11:05:04;;;;;;;6.93;3.90;;;6.80;88.50;;;;;;5070646;28;20059;-64
2022/11/13 11:07:50;;;;;;;5.93;3.67;;;6.80;88.30;;;;;;5069248;28;20059;-64
2022/11/13 11:12:14;;;;;;;5.78;3.55;;;6.90;88.20;;;;;;5067866;28;20403;-61
2022/11/13 11:13:43;;;;;;;8.23;4.50;;;6.90;88.50;;;;;;5067849;28;20052;-62
2022/11/13 11:16:31;;;;;;;8.73;4.68;;;7.00;89.20;;;;;;5067991;28;20055;-59
2022/11/13 11:19:20;;;;;;;8.82;4.95;;;7.00;88.70;;;;;;5067336;28;20167;-61
2022/11/13 11:22:13;;;;;;;10.52;5.10;;;7.10;88.90;;;;;;5069427;28;20054;-61
2022/11/13 11:25:04;;;;;;;11.20;6.05;;;7.20;89.00;;;;;;5067870;28;20079;-59
2022/11/13 11:27:55;;;;;;;12.48;5.60;;;7.20;89.30;;;;;;5064404;28;20205;-60
2022/11/13 11:30:47;;;;;;;10.43;5.68;;;7.20;88.40;;;;;;5064621;28;20127;-64
2022/11/13 11:33:35;;;;;;;9.27;5.50;;;7.20;88.60;;;;;;5067063;28;20098;-65
2022/11/13 11:36:29;;;;;;;9.02;5.15;;;7.30;88.90;;;;;;5067951;28;20060;-61
2022/11/13 11:39:31;;;;;;;8.52;4.53;;;7.30;88.50;;;;;;5070260;28;20064;-59
2022/11/13 11:42:26;;;;;;;8.13;4.57;;;7.40;88.70;;;;;;5068647;28;20398;-64
2022/11/13 11:45:16;;;;;;;6.47;3.70;;;7.40;88.60;;;;;;5064995;28;20262;-66
2022/11/13 11:48:05;;;;;;;;;;;7.50;89.20;;;;;;5064276;28;20174;-67
2022/11/13 11:51:03;;;;;;;4.80;2.95;;;7.50;88.40;;;;;;5063872;28;20051;-68
2022/11/13 11:53:57;;;;;;;5.88;3.08;;;7.60;88.20;;;;;;5062967;28;20141;-70
2022/11/13 11:56:47;;;;;;;5.10;2.80;;;7.60;87.80;;;;;;5064871;28;20407;-69
2022/11/13 12:00:01;;;;;;;6.88;3.00;;;7.60;88.10;;;;;;5065161;28;20044;-69
2022/11/13 12:03:13;;;;;;;5.18;2.92;;;7.50;88.60;;;;;;5062924;28;20056;-68
2022/11/13 12:06:08;;;;;;;6.25;2.80;;;7.50;88.40;;;;;;5066206;28;20454;-70
2022/11/13 12:09:02;;;;;;;5.75;3.10;;;7.50;88.70;;;;;;5064238;28;20078;-71
2022/11/13 12:11:58;;;;;;;6.55;2.97;;;7.50;88.70;;;;;;5065025;28;20044;-68
2022/11/13 12:14:54;;;;;;;7.93;4.20;;;7.60;89.00;;;;;;5065022;28;20479;-68
2022/11/13 12:17:51;;;;;;;7.70;4.03;;;7.60;88.80;;;;;;5061052;28;20047;-64
2022/11/13 12:20:43;;;;;;;9.30;4.22;;;7.60;88.80;;;;;;5063383;28;20401;-64
2022/11/13 12:24:00;;;;;;;7.70;3.88;;;7.70;88.80;;;;;;5065340;28;20051;-64
2022/11/13 12:26:51;;;;;;;6.82;3.67;;;7.70;89.00;;;;;;5064380;28;20056;-63
2022/11/13 12:29:49;;;;;;;7.68;3.30;;;7.70;88.70;;;;;;5066156;28;20056;-64
2022/11/13 12:32:59;;;;;;;5.93;2.80;;;7.70;88.40;;;;;;5065954;28;20125;-59
2022/11/13 12:35:49;;;;;;;5.18;2.40;;;7.80;88.40;;;;;;5066424;28;20048;-66
2022/11/13 12:38:41;;;;;;;5.00;2.53;;;7.80;88.30;;;;;;5066135;28;20046;-67
2022/11/13 12:41:35;;;;;;;6.50;2.85;;;7.80;88.10;;;;;;5066551;28;20056;-66
2022/11/13 12:44:24;;;;;;;7.00;3.28;;;7.90;88.20;;;;;;5067214;28;20093;-67
2022/11/13 12:47:10;;;;;;;6.68;3.00;;;7.90;88.00;;;;;;5066324;28;20051;-66
2022/11/13 12:50:00;;;;;;;5.60;3.17;;;7.90;87.70;;;;;;5066009;28;20185;-65
2022/11/13 12:52:58;;;;;;;6.38;3.22;;;7.90;87.60;;;;;;5066621;28;20133;-66
2022/11/13 12:55:55;;;;;;;7.25;2.90;;;7.90;87.50;;;;;;5063024;28;20282;-64
2022/11/13 12:58:40;;;;;;;5.68;2.90;;;8.00;87.20;;;;;;5064887;28;20438;-66
2022/11/13 13:01:31;;;;;;;4.90;2.55;;;8.00;87.20;;;;;;5067363;28;20193;-60
2022/11/13 13:04:40;;;;;;;4.95;2.60;;;8.00;87.20;;;;;;5065396;28;20066;-61
2022/11/13 13:07:50;;;;;;;5.65;2.53;;;8.10;87.20;;;;;;5067744;28;20048;-61
2022/11/13 13:10:48;;;;;;;4.47;2.10;;;8.10;87.00;;;;;;5064985;28;20052;-62
2022/11/13 13:13:40;;;;;;;5.47;2.78;;;8.10;86.90;;;;;;5066227;28;20067;-61
2022/11/13 13:16:29;;;;;;;6.22;2.42;;;8.20;86.80;;;;;;5061826;28;20051;-63
2022/11/13 13:19:27;;;;;;;5.18;2.47;;;8.20;86.70;;;;;;5065126;28;20052;-62
2022/11/13 13:22:26;;;;;;;4.97;2.30;;;8.20;86.80;;;;;;5064635;28;20051;-64
2022/11/13 13:25:26;;;;;;;5.93;2.65;;;8.20;86.80;;;;;;5066211;28;20055;-65
2022/11/13 13:28:20;;;;;;;5.55;2.40;;;8.30;86.50;;;;;;5064669;28;20461;-65
2022/11/13 13:31:21;;;;;;;4.05;1.75;;;8.40;86.10;;;;;;5059736;28;20067;-65
2022/11/13 13:34:25;;;;;;;4.57;2.30;;;8.40;85.30;;;;;;5063175;28;20059;-65
2022/11/13 13:37:21;;;;;;;4.10;2.03;;;8.40;85.10;;;;;;5062736;28;20051;-66
2022/11/13 13:40:25;;;;;;;3.72;1.90;;;8.40;85.30;;;;;;5064756;28;20044;-65
2022/11/13 13:43:33;;;;;;;3.53;2.08;;;8.40;85.60;;;;;;5060754;28;20289;-69
2022/11/13 13:46:20;;;;;;;4.25;2.17;;;8.40;85.60;;;;;;5064116;28;20055;-65
2022/11/13 13:49:13;;;;;;;4.82;2.42;;;8.40;85.70;;;;;;5063608;28;20059;-65
2022/11/13 13:52:00;;;;;;;4.55;2.25;;;8.50;85.90;;;;;;5065298;28;20055;-67
2022/11/13 13:54:47;;;;;;;4.90;2.50;;;8.40;85.60;;;;;;5065325;28;20055;-68
2022/11/13 13:57:34;;;;;;;4.63;2.40;;;8.50;85.70;;;;;;5060970;28;20052;-67
2022/11/13 14:00:21;;;;;;;5.30;2.70;;;8.50;86.00;;;;;;5055286;28;20182;-67
2022/11/13 14:03:19;;;;;;;6.00;2.75;;;8.50;86.10;;;;;;5063791;28;20052;-65
2022/11/13 14:06:19;;;;;;;4.85;2.35;;;8.60;86.20;;;;;;5065065;28;20052;-62
2022/11/13 14:09:09;;;;;;;5.73;2.73;;;8.60;86.30;;;;;;5063205;28;20437;-63
2022/11/13 14:11:59;;;;;;;6.00;2.92;;;8.50;86.70;;;;;;5062280;28;20547;-62
2022/11/13 14:14:45;;;;;;;7.38;3.75;;;8.60;86.70;;;;;;5068509;28;20063;-64
2022/11/13 14:17:31;;;;;;;7.57;4.20;;;8.60;86.80;;;;;;5066972;28;20052;-62
2022/11/13 14:20:17;;;;;;;8.95;4.00;;;8.60;87.00;;;;;;5069857;28;20074;-63
2022/11/13 14:23:03;;;;;;;7.90;4.30;;;8.60;87.10;;;;;;5065739;28;20531;-63
2022/11/13 14:25:51;;;;;;;9.52;3.85;;;8.60;87.20;;;;;;5071200;28;20039;-63
2022/11/13 14:28:46;;;;;;;6.30;3.40;;;8.60;87.00;;;;;;5067473;28;20517;-61
2022/11/13 14:31:34;;;;;;;6.53;3.70;;;8.60;87.00;;;;;;5066606;28;20237;-63
2022/11/13 14:34:22;;;;;;;7.95;4.00;;;8.60;87.10;;;;;;5069007;28;20086;-61
2022/11/13 14:37:20;;;;;;;7.45;4.03;;;8.60;87.10;;;;;;5069409;28;20042;-63
2022/11/13 14:40:20;;;;;;;6.45;3.60;;;8.60;87.20;;;;;;5070193;28;20055;-62
2022/11/13 14:43:08;;;;;;;8.43;4.28;;;8.60;87.30;;;;;;5071269;28;20047;-63
2022/11/13 14:45:57;;;;;;;10.10;5.28;;;8.60;87.10;;;;;;5072067;28;20052;-64
2022/11/13 14:48:53;;;;;;;11.13;5.05;;;8.60;87.40;;;;;;5068642;28;20417;-63